createdAt,value
2018-07-16T00:01:30.392Z,52.53
2018-07-16T00:03:59.382Z,52.55
2018-07-16T00:06:28.780Z,52.80
2018-07-16T00:08:57.788Z,52.50
2018-07-16T00:11:26.570Z,52.83
2018-07-16T00:13:55.789Z,52.87
2018-07-16T00:16:24.666Z,53.20
2018-07-16T00:18:53.839Z,52.70
2018-07-16T00:21:23.316Z,53.30
2018-07-16T00:23:52.381Z,53.50
2018-07-16T00:26:21.490Z,53.66
2018-07-16T00:28:50.980Z,53.61
2018-07-16T00:31:20.008Z,53.66
2018-07-16T00:33:48.755Z,53.47
2018-07-16T00:36:18.231Z,53.65
2018-07-16T00:38:47.306Z,54.05
2018-07-16T00:41:16.344Z,53.79
2018-07-16T00:43:45.222Z,53.46
2018-07-16T00:46:14.229Z,53.97
2018-07-16T00:48:43.323Z,53.63
2018-07-16T00:51:12.447Z,53.76
2018-07-16T00:53:41.295Z,54.14
2018-07-16T00:56:10.484Z,54.00
2018-07-16T00:58:39.355Z,54.44
2018-07-16T01:01:08.681Z,53.91
2018-07-16T01:03:37.900Z,54.58
2018-07-16T01:06:07.309Z,54.56
2018-07-16T01:08:37.026Z,55.02
2018-07-16T01:11:05.959Z,54.58
2018-07-16T01:13:35.057Z,54.61
2018-07-16T01:16:03.941Z,54.93
2018-07-16T01:18:32.887Z,54.95
2018-07-16T01:21:02.112Z,55.75
2018-07-16T01:23:30.875Z,56.29
2018-07-16T01:25:59.736Z,56.36
2018-07-16T01:28:28.935Z,56.30
2018-07-16T01:30:57.762Z,56.34
2018-07-16T01:33:26.761Z,56.76
2018-07-16T01:35:56.025Z,56.01
2018-07-16T01:38:24.819Z,56.29
2018-07-16T01:40:53.610Z,56.28
2018-07-16T01:43:22.767Z,56.57
2018-07-16T01:45:51.620Z,56.61
2018-07-16T01:48:20.591Z,56.53
2018-07-16T01:50:49.878Z,56.86
2018-07-16T01:53:19.035Z,56.21
2018-07-16T01:55:47.987Z,56.74
2018-07-16T01:58:17.197Z,56.47
2018-07-16T02:00:56.752Z,56.47
2018-07-16T02:03:29.958Z,56.64
2018-07-16T02:05:58.931Z,56.91
2018-07-16T02:08:28.223Z,57.42
2018-07-16T02:10:57.654Z,57.26
2018-07-16T02:13:26.419Z,57.57
2018-07-16T02:15:55.202Z,57.47
2018-07-16T02:18:24.373Z,57.59
2018-07-16T02:20:53.710Z,57.49
2018-07-16T02:23:22.608Z,57.19
2018-07-16T02:25:51.909Z,57.99
2018-07-16T02:28:21.002Z,58.54
2018-07-16T02:30:49.944Z,58.28
2018-07-16T02:33:19.427Z,58.72
2018-07-16T02:35:48.199Z,58.72
2018-07-16T02:38:17.011Z,58.34
2018-07-16T02:40:46.350Z,58.37
2018-07-16T02:43:15.334Z,58.76
2018-07-16T02:45:44.219Z,58.79
2018-07-16T02:48:13.218Z,58.98
2018-07-16T02:50:42.277Z,59.38
2018-07-16T02:53:11.439Z,59.82
2018-07-16T02:55:40.674Z,60.06
2018-07-16T02:58:09.608Z,60.57
2018-07-16T03:00:38.420Z,60.05
2018-07-16T03:03:07.844Z,60.15
2018-07-16T03:05:37.137Z,60.24
2018-07-16T03:08:06.156Z,60.72
2018-07-16T03:10:35.423Z,60.21
2018-07-16T03:13:04.582Z,60.45
2018-07-16T03:15:33.574Z,60.74
2018-07-16T03:18:03.385Z,60.21
2018-07-16T03:20:32.348Z,60.04
2018-07-16T03:23:01.458Z,59.98
2018-07-16T03:25:30.377Z,59.63
2018-07-16T03:27:59.388Z,59.64
2018-07-16T03:30:28.500Z,59.93
2018-07-16T03:32:57.521Z,59.21
2018-07-16T03:35:26.777Z,59.20
2018-07-16T03:37:55.853Z,59.77
2018-07-16T03:40:25.334Z,59.89
2018-07-16T03:42:54.344Z,59.78
2018-07-16T03:45:23.287Z,59.88
2018-07-16T03:47:53.044Z,59.92
2018-07-16T03:50:22.164Z,59.60
2018-07-16T03:52:51.102Z,59.40
2018-07-16T03:55:20.109Z,59.63
2018-07-16T03:57:49.046Z,60.03
2018-07-16T04:00:17.774Z,59.21
2018-07-16T04:02:47.263Z,59.44
2018-07-16T04:05:16.066Z,59.53
2018-07-16T04:07:45.077Z,59.77
2018-07-16T04:10:13.775Z,59.55
2018-07-16T04:12:42.531Z,60.11
2018-07-16T04:15:11.501Z,59.81
2018-07-16T04:17:40.654Z,60.20
2018-07-16T04:20:09.932Z,60.55
2018-07-16T04:22:38.928Z,60.53
2018-07-16T04:25:08.046Z,60.42
2018-07-16T04:27:37.230Z,60.45
2018-07-16T04:30:06.335Z,60.70
2018-07-16T04:32:35.565Z,60.40
2018-07-16T04:35:04.636Z,59.78
2018-07-16T04:37:33.606Z,59.73
2018-07-16T04:40:02.639Z,58.87
2018-07-16T04:42:31.425Z,59.48
2018-07-16T04:45:00.621Z,59.79
2018-07-16T04:47:29.913Z,59.45
2018-07-16T04:49:58.662Z,58.96
2018-07-16T04:52:27.415Z,58.71
2018-07-16T04:54:57.013Z,58.94
2018-07-16T04:57:26.219Z,59.25
2018-07-16T04:59:55.127Z,58.13
2018-07-16T05:02:24.483Z,58.05
2018-07-16T05:04:53.516Z,58.33
2018-07-16T05:07:22.364Z,58.27
2018-07-16T05:09:51.585Z,58.04
2018-07-16T05:12:20.467Z,57.43
2018-07-16T05:14:49.319Z,57.44
2018-07-16T05:17:18.259Z,57.48
2018-07-16T05:19:47.269Z,57.99
2018-07-16T05:22:17.187Z,57.66
2018-07-16T05:24:46.589Z,58.16
2018-07-16T05:27:15.547Z,57.96
2018-07-16T05:29:44.326Z,58.62
2018-07-16T05:32:13.454Z,58.36
2018-07-16T05:34:42.602Z,58.38
2018-07-16T05:37:11.528Z,57.97
2018-07-16T05:39:40.499Z,57.42
2018-07-16T05:42:09.617Z,57.81
2018-07-16T05:44:38.559Z,57.43
2018-07-16T05:49:41.586Z,57.68
2018-07-16T05:52:13.859Z,57.40
2018-07-16T05:54:42.606Z,57.76
2018-07-16T05:57:11.722Z,56.95
2018-07-16T05:59:41.014Z,57.54
2018-07-16T06:02:10.237Z,57.51
2018-07-16T06:04:39.066Z,57.93
2018-07-16T06:07:08.592Z,56.63
2018-07-16T06:09:37.618Z,56.36
2018-07-16T06:12:06.773Z,56.56
2018-07-16T06:14:36.307Z,57.05
2018-07-16T06:17:05.427Z,56.50
2018-07-16T06:19:34.329Z,56.79
2018-07-16T06:22:03.644Z,56.78
2018-07-16T06:24:32.847Z,55.96
2018-07-16T06:27:01.583Z,56.44
2018-07-16T06:29:31.173Z,56.77
2018-07-16T06:32:00.439Z,55.94
2018-07-16T06:34:29.516Z,55.20
2018-07-16T06:36:58.766Z,54.72
2018-07-16T06:39:27.882Z,55.58
2018-07-16T06:41:56.940Z,55.62
2018-07-16T06:44:26.848Z,55.19
2018-07-16T06:46:56.039Z,54.17
2018-07-16T06:49:24.985Z,54.25
2018-07-16T06:51:54.148Z,54.55
2018-07-16T06:54:23.162Z,53.76
2018-07-16T06:56:52.104Z,54.20
2018-07-16T06:59:20.891Z,54.80
2018-07-16T07:01:50.185Z,54.52
2018-07-16T07:04:19.332Z,54.17
2018-07-16T07:06:48.541Z,53.38
2018-07-16T07:09:18.031Z,52.56
2018-07-16T07:11:46.943Z,52.77
2018-07-16T07:14:15.846Z,53.83
2018-07-16T07:16:44.875Z,52.53
2018-07-16T07:19:13.803Z,54.08
2018-07-16T07:21:42.822Z,52.41
2018-07-16T07:24:11.813Z,51.34
2018-07-16T07:26:40.584Z,51.54
2018-07-16T07:29:09.482Z,51.41
2018-07-16T07:31:38.335Z,50.98
2018-07-16T07:34:07.546Z,50.95
2018-07-16T07:36:37.017Z,50.82
2018-07-16T07:39:07.222Z,50.51
2018-07-16T07:41:36.474Z,50.53
2018-07-16T07:44:05.307Z,50.01
2018-07-16T07:46:34.268Z,50.72
2018-07-16T07:49:03.285Z,50.42
2018-07-16T07:51:32.362Z,49.20
2018-07-16T07:54:01.456Z,48.64
2018-07-16T07:56:30.402Z,49.14
2018-07-16T07:58:59.221Z,48.69
2018-07-16T08:01:28.441Z,48.96
2018-07-16T08:03:57.540Z,48.43
2018-07-16T08:06:26.640Z,47.49
2018-07-16T08:08:58.571Z,48.08
2018-07-16T08:11:27.733Z,47.59
2018-07-16T08:13:56.448Z,46.77
2018-07-16T08:16:25.934Z,47.74
2018-07-16T08:18:54.889Z,46.23
2018-07-16T08:21:23.747Z,46.23
2018-07-16T08:23:53.055Z,44.78
2018-07-16T08:26:22.362Z,44.78
2018-07-16T08:28:51.458Z,45.83
2018-07-16T08:31:20.794Z,45.06
2018-07-16T08:33:49.678Z,43.69
2018-07-16T08:36:18.582Z,43.91
2018-07-16T08:38:47.557Z,43.13
2018-07-16T08:41:16.681Z,41.34
2018-07-16T08:43:45.526Z,42.24
2018-07-16T08:46:14.727Z,42.48
2018-07-16T08:48:43.692Z,41.21
2018-07-16T08:51:12.621Z,40.48
2018-07-16T08:53:41.373Z,41.26
2018-07-16T08:56:10.570Z,41.42
2018-07-16T08:58:39.747Z,41.32
2018-07-16T09:01:08.781Z,40.24
2018-07-16T09:03:37.578Z,38.97
2018-07-16T09:06:06.976Z,39.93
2018-07-16T09:08:36.674Z,39.49
2018-07-16T09:11:06.961Z,39.42
2018-07-16T09:13:35.826Z,38.44
2018-07-16T09:16:04.992Z,39.33
2018-07-16T09:18:33.793Z,39.25
2018-07-16T09:21:02.963Z,39.67
2018-07-16T09:23:32.282Z,38.97
2018-07-16T09:26:01.478Z,37.23
2018-07-16T09:28:30.486Z,35.67
2018-07-16T09:30:59.734Z,35.74
2018-07-16T09:33:28.689Z,38.10
2018-07-16T09:35:57.820Z,38.75
2018-07-16T09:38:27.065Z,38.36
2018-07-16T09:40:56.353Z,36.15
2018-07-16T09:43:25.316Z,37.74
2018-07-16T09:45:54.552Z,37.41
2018-07-16T09:48:23.303Z,36.30
2018-07-16T09:50:52.199Z,38.24
2018-07-16T09:53:20.988Z,37.90
2018-07-16T09:55:49.937Z,37.52
2018-07-16T09:58:20.359Z,36.06
2018-07-16T10:00:54.541Z,37.08
2018-07-16T10:05:51.845Z,36.19
2018-07-16T10:08:20.765Z,36.27
2018-07-16T10:10:49.625Z,35.97
2018-07-16T10:13:18.545Z,36.25
2018-07-16T10:15:47.820Z,34.34
2018-07-16T10:18:16.609Z,35.69
2018-07-16T10:20:45.576Z,34.76
2018-07-16T10:23:14.954Z,33.86
2018-07-16T10:25:43.923Z,30.84
2018-07-16T10:28:12.902Z,33.07
2018-07-16T10:30:41.710Z,31.54
2018-07-16T10:33:10.593Z,32.27
2018-07-16T10:35:39.759Z,30.10
2018-07-16T10:38:08.701Z,30.07
2018-07-16T10:40:37.673Z,29.62
2018-07-16T10:43:06.667Z,28.68
2018-07-16T10:45:35.569Z,29.03
2018-07-16T10:48:04.599Z,30.16
2018-07-16T10:50:33.546Z,29.81
2018-07-16T10:53:02.490Z,30.22
2018-07-16T10:55:31.520Z,30.08
2018-07-16T10:58:01.607Z,30.98
2018-07-16T11:00:30.579Z,29.12
2018-07-16T11:02:59.617Z,27.84
2018-07-16T11:05:28.504Z,29.29
2018-07-16T11:07:57.448Z,28.52
2018-07-16T11:10:26.414Z,27.81
2018-07-16T11:12:55.275Z,29.69
2018-07-16T11:15:24.526Z,29.03
2018-07-16T11:17:53.350Z,29.53
2018-07-16T11:20:22.377Z,27.04
2018-07-16T11:22:51.769Z,26.26
2018-07-16T11:25:20.782Z,26.18
2018-07-16T11:27:49.691Z,27.36
2018-07-16T11:30:18.910Z,27.00
2018-07-16T11:32:47.833Z,29.17
2018-07-16T11:35:16.695Z,30.29
2018-07-16T11:37:45.492Z,30.22
2018-07-16T11:40:14.539Z,29.95
2018-07-16T11:42:44.258Z,28.49
2018-07-16T11:45:13.479Z,27.95
2018-07-16T11:47:42.255Z,28.37
2018-07-16T11:50:11.373Z,27.96
2018-07-16T11:52:40.725Z,27.71
2018-07-16T11:55:09.543Z,29.22
2018-07-16T11:57:38.650Z,30.61
2018-07-16T12:00:07.743Z,30.23
2018-07-16T12:02:36.737Z,27.77
2018-07-16T12:05:05.740Z,29.08
2018-07-16T12:07:34.639Z,28.43
2018-07-16T12:10:03.546Z,28.19
2018-07-16T12:12:32.872Z,27.74
2018-07-16T12:15:01.709Z,27.00
2018-07-16T12:17:30.469Z,27.62
2018-07-16T12:19:59.704Z,27.40
2018-07-16T12:22:28.832Z,27.36
2018-07-16T12:24:57.551Z,27.61
2018-07-16T12:27:26.294Z,28.68
2018-07-16T12:29:55.258Z,28.88
2018-07-16T12:32:24.277Z,29.46
2018-07-16T12:34:53.229Z,28.01
2018-07-16T12:37:22.179Z,28.73
2018-07-16T12:39:50.906Z,27.32
2018-07-16T12:42:20.976Z,28.45
2018-07-16T12:44:49.856Z,29.03
2018-07-16T12:47:18.612Z,28.19
2018-07-16T12:49:47.720Z,28.45
2018-07-16T12:52:17.096Z,28.23
2018-07-16T12:54:46.099Z,28.77
2018-07-16T12:57:14.957Z,27.27
2018-07-16T12:59:43.908Z,27.75
2018-07-16T13:02:12.994Z,28.10
2018-07-16T13:04:42.154Z,27.93
2018-07-16T13:07:11.265Z,27.50
2018-07-16T13:09:40.130Z,28.52
2018-07-16T13:12:10.150Z,28.44
2018-07-16T13:14:39.434Z,26.74
2018-07-16T13:17:08.477Z,28.01
2018-07-16T13:19:37.380Z,28.65
2018-07-16T13:22:06.599Z,29.67
2018-07-16T13:24:35.706Z,29.04
2018-07-16T13:27:05.047Z,28.58
2018-07-16T13:29:33.990Z,28.75
2018-07-16T13:32:03.166Z,27.59
2018-07-16T13:34:32.273Z,29.08
2018-07-16T13:37:01.137Z,28.15
2018-07-16T13:39:29.876Z,28.42
2018-07-16T13:41:58.819Z,28.60
2018-07-16T13:44:27.665Z,27.54
2018-07-16T13:46:56.374Z,27.09
2018-07-16T13:49:25.419Z,27.27
2018-07-16T13:51:54.746Z,27.07
2018-07-16T13:54:23.540Z,27.82
2018-07-16T13:56:52.651Z,28.30
2018-07-16T13:59:21.892Z,26.95
2018-07-16T14:01:51.194Z,27.69
2018-07-16T14:04:20.074Z,28.22
2018-07-16T14:06:49.018Z,28.16
2018-07-16T14:09:17.988Z,28.02
2018-07-16T14:11:47.198Z,28.09
2018-07-16T14:14:16.175Z,27.81
2018-07-16T14:16:45.262Z,28.21
2018-07-16T14:19:14.449Z,27.95
2018-07-16T14:21:43.275Z,28.17
2018-07-16T14:24:12.098Z,28.42
2018-07-16T14:26:40.923Z,28.04
2018-07-16T14:29:10.346Z,29.08
2018-07-16T14:31:39.613Z,28.02
2018-07-16T14:34:08.689Z,28.21
2018-07-16T14:36:37.758Z,27.59
2018-07-16T14:39:06.943Z,27.96
2018-07-16T14:41:36.039Z,28.55
2018-07-16T14:44:05.029Z,27.75
2018-07-16T14:46:34.224Z,28.45
2018-07-16T14:49:03.121Z,27.65
2018-07-16T14:51:32.278Z,28.22
2018-07-16T14:54:01.091Z,28.76
2018-07-16T14:56:30.075Z,27.67
2018-07-16T14:58:59.196Z,28.19
2018-07-16T15:01:28.265Z,27.30
2018-07-16T15:03:57.169Z,28.58
2018-07-16T15:06:26.383Z,28.48
2018-07-16T15:08:55.198Z,28.06
2018-07-16T15:11:24.658Z,28.36
2018-07-16T15:13:53.583Z,27.19
2018-07-16T15:16:22.469Z,27.62
2018-07-16T15:18:51.397Z,28.27
2018-07-16T15:21:20.773Z,28.33
2018-07-16T15:23:49.274Z,28.81
2018-07-16T15:26:18.237Z,28.49
2018-07-16T15:28:47.076Z,29.44
2018-07-16T15:31:16.179Z,28.91
2018-07-16T15:33:45.043Z,28.35
2018-07-16T15:36:14.294Z,28.28
2018-07-16T15:38:43.623Z,28.67
2018-07-16T15:41:13.070Z,28.72
2018-07-16T15:43:42.015Z,31.80
2018-07-16T15:46:10.797Z,32.12
2018-07-16T15:48:40.038Z,30.29
2018-07-16T15:51:08.871Z,30.18
2018-07-16T15:53:37.789Z,30.36
2018-07-16T15:56:06.722Z,29.11
2018-07-16T15:58:35.780Z,28.07
2018-07-16T16:01:04.743Z,28.80
2018-07-16T16:03:33.789Z,28.51
2018-07-16T16:06:02.645Z,28.68
2018-07-16T16:08:31.740Z,28.65
2018-07-16T16:11:01.176Z,28.65
2018-07-16T16:13:30.143Z,29.00
2018-07-16T16:15:59.449Z,30.21
2018-07-16T16:18:28.651Z,30.06
2018-07-16T16:20:58.028Z,28.80
2018-07-16T16:23:27.018Z,29.61
2018-07-16T16:25:56.001Z,29.15
2018-07-16T16:28:24.981Z,29.17
2018-07-16T16:30:54.543Z,30.72
2018-07-16T16:33:23.841Z,30.76
2018-07-16T16:35:52.769Z,30.82
2018-07-16T16:38:21.683Z,31.20
2018-07-16T16:40:51.070Z,32.78
2018-07-16T16:43:20.067Z,31.85
2018-07-16T16:45:48.894Z,32.59
2018-07-16T16:48:18.438Z,34.09
2018-07-16T16:50:47.276Z,33.71
2018-07-16T16:53:23.432Z,33.51
2018-07-16T16:55:52.479Z,33.71
2018-07-16T16:58:21.957Z,34.23
2018-07-16T17:00:55.367Z,33.64
2018-07-16T17:03:24.818Z,33.15
2018-07-16T17:05:54.501Z,33.78
2018-07-16T17:08:24.113Z,34.04
2018-07-16T17:10:53.254Z,33.70
2018-07-16T17:13:22.212Z,33.64
2018-07-16T17:15:51.502Z,33.69
2018-07-16T17:18:20.706Z,33.85
2018-07-16T17:20:49.779Z,34.27
2018-07-16T17:23:19.142Z,34.00
2018-07-16T17:25:48.288Z,34.35
2018-07-16T17:28:17.232Z,34.06
2018-07-16T17:30:46.786Z,34.61
2018-07-16T17:33:15.673Z,34.13
2018-07-16T17:35:44.616Z,33.95
2018-07-16T17:38:13.770Z,34.00
2018-07-16T17:40:42.889Z,33.55
2018-07-16T17:43:11.742Z,34.19
2018-07-16T17:45:41.366Z,34.64
2018-07-16T17:48:10.633Z,34.51
2018-07-16T17:50:39.460Z,34.84
2018-07-16T17:53:08.770Z,36.69
2018-07-16T17:55:37.991Z,36.74
2018-07-16T17:58:07.080Z,37.11
2018-07-16T18:00:36.379Z,37.97
2018-07-16T18:03:05.635Z,38.59
2018-07-16T18:05:34.634Z,38.43
2018-07-16T18:08:03.859Z,38.61
2018-07-16T18:10:32.938Z,38.66
2018-07-16T18:13:02.022Z,38.89
2018-07-16T18:15:31.655Z,39.67
2018-07-16T18:18:00.655Z,40.21
2018-07-16T18:20:29.818Z,42.05
2018-07-16T18:22:59.279Z,40.51
2018-07-16T18:25:28.143Z,40.24
2018-07-16T18:27:57.109Z,41.26
2018-07-16T18:30:26.263Z,43.39
2018-07-16T18:32:54.963Z,40.97
2018-07-16T18:35:24.208Z,41.40
2018-07-16T18:37:53.330Z,41.89
2018-07-16T18:40:22.410Z,42.01
2018-07-16T18:42:51.408Z,42.73
2018-07-16T18:45:20.782Z,42.22
2018-07-16T18:47:49.801Z,41.91
2018-07-16T18:50:18.789Z,42.24
2018-07-16T18:52:47.992Z,43.15
2018-07-16T18:55:17.040Z,42.64
2018-07-16T18:57:46.294Z,43.11
2018-07-16T19:00:15.729Z,42.82
2018-07-16T19:02:44.475Z,43.51
2018-07-16T19:05:13.481Z,43.70
2018-07-16T19:07:42.870Z,44.29
2018-07-16T19:10:11.855Z,43.97
2018-07-16T19:12:41.059Z,44.11
2018-07-16T19:15:15.317Z,42.58
2018-07-16T19:17:44.570Z,44.70
2018-07-16T19:20:13.784Z,44.02
2018-07-16T19:22:42.899Z,44.48
2018-07-16T19:25:11.989Z,44.64
2018-07-16T19:27:40.826Z,43.72
2018-07-16T19:30:10.203Z,45.33
2018-07-16T19:32:39.375Z,45.40
2018-07-16T19:35:08.460Z,44.97
2018-07-16T19:37:38.046Z,45.89
2018-07-16T19:40:08.109Z,45.67
2018-07-16T19:42:37.471Z,45.15
2018-07-16T19:45:07.240Z,45.26
2018-07-16T19:47:36.060Z,44.68
2018-07-16T19:50:05.815Z,45.54
2018-07-16T19:52:35.032Z,47.04
2018-07-16T19:55:04.009Z,46.69
2018-07-16T19:57:33.399Z,47.13
2018-07-16T20:00:02.580Z,46.85
2018-07-16T20:02:31.789Z,47.85
2018-07-16T20:05:00.671Z,46.55
2018-07-16T20:07:29.713Z,47.71
2018-07-16T20:09:58.478Z,46.88
2018-07-16T20:12:31.275Z,47.61
2018-07-16T20:15:00.989Z,47.71
2018-07-16T20:17:29.858Z,46.62
2018-07-16T20:19:59.548Z,46.35
2018-07-16T20:22:28.929Z,46.34
2018-07-16T20:24:58.331Z,47.36
2018-07-16T20:27:27.364Z,47.51
2018-07-16T20:29:56.314Z,47.81
2018-07-16T20:32:25.408Z,48.60
2018-07-16T20:34:54.352Z,49.41
2018-07-16T20:37:23.095Z,49.20
2018-07-16T20:39:52.272Z,48.33
2018-07-16T20:42:21.629Z,46.85
2018-07-16T20:44:50.768Z,47.92
2018-07-16T20:47:19.659Z,48.62
2018-07-16T20:49:49.264Z,50.09
2018-07-16T20:52:18.069Z,50.68
2018-07-16T20:54:47.016Z,50.84
2018-07-16T20:57:16.247Z,50.89
2018-07-16T20:59:45.097Z,51.36
2018-07-16T21:04:48.753Z,51.68
2018-07-16T21:07:17.434Z,49.70
2018-07-16T21:09:46.344Z,50.00
2018-07-16T21:12:15.744Z,49.82
2018-07-16T21:14:44.676Z,50.64
2018-07-16T21:17:13.557Z,51.14
2018-07-16T21:19:43.647Z,51.01
2018-07-16T21:22:12.724Z,51.26
2018-07-16T21:24:41.915Z,51.34
2018-07-16T21:27:11.881Z,51.06
2018-07-16T21:29:40.730Z,50.67
2018-07-16T21:32:11.076Z,50.66
2018-07-16T21:34:40.346Z,51.28
2018-07-16T21:37:09.479Z,51.16
2018-07-16T21:39:39.558Z,51.35
2018-07-16T21:42:09.293Z,51.33
2018-07-16T21:44:38.392Z,51.50
2018-07-16T21:47:07.370Z,51.03
2018-07-16T21:49:36.266Z,50.88
2018-07-16T21:52:05.235Z,50.70
2018-07-16T21:54:34.393Z,50.69
2018-07-16T21:57:03.405Z,51.36
2018-07-16T21:59:32.727Z,51.36
2018-07-16T22:02:01.569Z,50.59
2018-07-16T22:04:30.485Z,51.09
2018-07-16T22:06:59.519Z,51.32
2018-07-16T22:09:28.697Z,50.88
2018-07-16T22:11:58.140Z,50.61
2018-07-16T22:14:27.219Z,50.72
2018-07-16T22:16:56.169Z,50.95
2018-07-16T22:19:25.352Z,51.01
2018-07-16T22:21:54.316Z,50.93
2018-07-16T22:24:23.532Z,51.05
2018-07-16T22:26:52.494Z,50.71
2018-07-16T22:29:21.510Z,51.02
2018-07-16T22:31:50.496Z,52.34
2018-07-16T22:34:19.696Z,53.26
2018-07-16T22:36:48.518Z,52.46
2018-07-16T22:39:17.319Z,52.66
2018-07-16T22:41:46.189Z,52.54
2018-07-16T22:44:15.134Z,53.30
2018-07-16T22:46:43.947Z,53.32
2018-07-16T22:49:13.060Z,53.16
2018-07-16T22:51:42.036Z,53.13
2018-07-16T22:54:11.010Z,53.37
2018-07-16T22:56:40.356Z,53.51
2018-07-16T22:59:09.233Z,53.77
2018-07-16T23:01:38.186Z,53.82
2018-07-16T23:04:07.120Z,54.02
2018-07-16T23:06:36.017Z,54.70
2018-07-16T23:09:05.866Z,55.29
2018-07-16T23:11:35.229Z,55.74
2018-07-16T23:14:04.412Z,55.95
2018-07-16T23:16:33.318Z,54.96
2018-07-16T23:19:02.550Z,55.12
2018-07-16T23:21:31.338Z,55.76
2018-07-16T23:24:00.293Z,56.03
2018-07-16T23:26:29.421Z,56.25
2018-07-16T23:28:58.523Z,56.43
2018-07-16T23:31:27.408Z,55.91
2018-07-16T23:33:56.615Z,56.02
2018-07-16T23:36:25.357Z,55.51
2018-07-16T23:38:54.345Z,55.61
2018-07-16T23:41:24.102Z,55.52
2018-07-16T23:43:53.088Z,56.27
2018-07-16T23:46:21.954Z,56.23
2018-07-16T23:48:52.084Z,56.22
2018-07-16T23:51:21.157Z,56.50
2018-07-16T23:53:50.387Z,56.49
2018-07-16T23:56:19.390Z,56.54
2018-07-16T23:58:48.363Z,57.54
